Time;durP1;ratioP1;P1;durP2;ratioP2;P2;SDS_P1;SDS_P2;PMS_P1;PMS_P2;Temp;Humidity;BMP_temperature;BMP_pressure;BME280_temperature;BME280_humidity;BME280_pressure;Samples;Min_cycle;Max_cycle;Signal;HPM_P1;HPM_P2
2022/12/08 00:01:12;;;;;;;14.53;9.67;;;;;;;-145.18;100.00;46719.00;5013207;28;20282;-74
2022/12/08 00:03:38;;;;;;;12.77;9.63;;;;;;;-145.18;100.00;46720.94;5012807;28;20030;-74
2022/12/08 00:11:33;;;;;;;17.70;9.80;;;;;;;-145.18;100.00;46709.22;5013004;28;20045;-74
2022/12/08 00:13:59;;;;;;;20.13;11.03;;;;;;;-145.18;100.00;46707.28;4995575;28;20291;-74
2022/12/08 00:16:24;;;;;;;19.03;10.60;;;;;;;-145.18;100.00;46711.19;5012944;28;20038;-74
2022/12/08 00:18:50;;;;;;;18.27;10.90;;;;;;;-145.18;100.00;46717.03;4994583;28;20050;-74
2022/12/08 00:21:15;;;;;;;19.77;10.30;;;;;;;-145.18;100.00;46717.03;5012798;28;20038;-73
2022/12/08 00:23:40;;;;;;;15.53;10.23;;;;;;;-145.18;100.00;46719.00;4994773;28;20038;-74
2022/12/08 00:26:06;;;;;;;19.30;11.53;;;;;;;-145.18;100.00;46711.19;5012917;28;20037;-73
2022/12/08 00:28:32;;;;;;;18.47;10.47;;;;;;;-145.18;100.00;46715.09;4994967;28;20084;-74
2022/12/08 00:30:58;;;;;;;17.40;10.47;;;;;;;-145.18;100.00;46707.28;5012439;28;20030;-74
2022/12/08 00:33:26;;;;;;;18.10;9.00;;;;;;;-145.18;100.00;46707.28;5012165;28;20381;-74
2022/12/08 00:35:51;;;;;;;15.70;8.03;;;;;;;-145.18;100.00;46703.38;5012414;28;20267;-74
2022/12/08 00:38:16;;;;;;;14.53;9.40;;;;;;;-145.18;100.00;46699.47;5012432;28;20271;-74
2022/12/08 00:40:45;;;;;;;16.70;10.23;;;;;;;-145.18;100.00;46713.13;5012449;28;20453;-74
2022/12/08 00:43:11;;;;;;;16.57;9.83;;;;;;;-145.18;100.00;46705.31;5011976;28;20046;-74
2022/12/08 00:45:37;;;;;;;17.53;9.10;;;;;;;-145.18;100.00;46709.22;5011600;28;20286;-74
2022/12/08 00:48:02;;;;;;;14.90;8.80;;;;;;;-145.18;100.00;46703.38;5012333;28;20117;-74
2022/12/08 00:50:27;;;;;;;22.43;10.27;;;;;;;-145.18;100.00;46707.28;5012177;28;20483;-74
2022/12/08 00:52:53;;;;;;;13.30;8.57;;;;;;;-145.18;100.00;46703.38;5011692;28;20776;-74
2022/12/08 00:55:18;;;;;;;17.47;8.27;;;;;;;-145.18;100.00;46713.13;4994786;28;20077;-76
2022/12/08 00:57:43;;;;;;;10.67;7.60;;;;;;;-145.18;100.00;46717.03;5011776;28;20064;-75
2022/12/08 01:00:09;;;;;;;16.00;7.80;;;;;;;-145.18;100.00;46697.50;5012206;28;20038;-75
2022/12/08 01:02:35;;;;;;;13.07;7.80;;;;;;;-145.18;100.00;46709.22;5011482;28;20045;-75
2022/12/08 01:05:00;;;;;;;17.10;8.10;;;;;;;-145.18;100.00;46709.22;5011838;28;20038;-75
2022/12/08 01:07:25;;;;;;;12.57;7.60;;;;;;;-145.18;100.00;46703.38;4994374;28;20057;-74
2022/12/08 01:09:51;;;;;;;15.00;7.10;;;;;;;-145.18;100.00;46713.13;4994310;28;20110;-75
2022/12/08 01:12:17;;;;;;;11.40;6.13;;;;;;;-145.18;100.00;46705.31;5011642;28;20061;-75
2022/12/08 01:14:42;;;;;;;8.80;5.90;;;;;;;-145.18;100.00;46717.03;5011515;28;20092;-75
2022/12/08 01:17:08;;;;;;;12.17;5.33;;;;;;;-145.18;100.00;46703.38;5011507;28;20495;-75
2022/12/08 01:19:33;;;;;;;10.47;5.50;;;;;;;-145.18;100.00;46705.31;5011760;28;20095;-75
2022/12/08 01:21:59;;;;;;;8.33;3.77;;;;;;;-145.18;100.00;46703.38;5011387;28;20045;-74
2022/12/08 01:24:24;;;;;;;6.57;3.33;;;;;;;-145.18;100.00;46703.38;5011761;28;20034;-74
2022/12/08 01:26:50;;;;;;;5.07;2.63;;;;;;;-145.18;100.00;46715.09;5011222;28;20034;-75
2022/12/08 01:29:16;;;;;;;2.77;1.70;;;;;;;-145.18;100.00;46697.50;5011418;28;20563;-75
2022/12/08 01:31:41;;;;;;;5.30;2.13;;;;;;;-145.18;100.00;46703.38;5011382;28;20267;-75
2022/12/08 01:34:08;;;;;;;5.33;2.43;;;;;;;-145.18;100.00;46703.38;5011486;28;20387;-75
2022/12/08 01:36:38;;;;;;;3.37;1.60;;;;;;;-145.18;100.00;46711.19;5011599;28;20026;-75
2022/12/08 01:39:07;;;;;;;4.63;1.50;;;;;;;-145.18;100.00;46719.00;5010839;28;20263;-74
2022/12/08 01:41:34;;;;;;;4.70;1.70;;;;;;;-145.18;100.00;46713.13;5011394;28;20271;-74
2022/12/08 01:44:01;;;;;;;3.90;1.50;;;;;;;-145.18;100.00;46711.19;5011284;28;20264;-74
2022/12/08 01:46:32;;;;;;;4.80;1.33;;;;;;;-145.18;100.00;46715.09;5011162;28;20263;-74
2022/12/08 01:49:21;;;;;;;3.73;1.70;;;;;;;-145.18;100.00;46709.22;5010801;28;20597;-74
2022/12/08 01:51:46;;;;;;;3.93;1.30;;;;;;;-145.18;100.00;46713.13;5010915;28;20737;-74
2022/12/08 01:54:13;;;;;;;4.20;1.57;;;;;;;-145.18;100.00;46701.41;5010781;28;20302;-75
2022/12/08 01:56:50;;;;;;;5.10;1.40;;;;;;;-145.18;100.00;46717.03;5009831;28;20061;-74
2022/12/08 01:59:17;;;;;;;3.63;1.53;;;;;;;-145.18;100.00;46713.13;5010885;28;20263;-74
2022/12/08 02:01:42;;;;;;;7.90;1.70;;;;;;;-145.18;100.00;46707.28;5010698;28;20268;-74
2022/12/08 02:04:08;;;;;;;5.03;1.40;;;;;;;-145.18;100.00;46705.31;5010805;28;20279;-74
2022/12/08 02:06:38;;;;;;;2.03;1.03;;;;;;;-145.18;100.00;46707.28;5010436;28;20536;-74
2022/12/08 02:09:04;;;;;;;3.70;1.30;;;;;;;-145.18;100.00;46709.22;5010511;28;20287;-74
2022/12/08 02:11:30;;;;;;;2.80;1.20;;;;;;;-145.18;100.00;46709.22;5010899;28;20315;-74
2022/12/08 02:13:57;;;;;;;4.27;1.30;;;;;;;-145.18;100.00;46713.13;5010607;28;20733;-74
2022/12/08 02:16:39;;;;;;;5.40;1.20;;;;;;;-145.18;100.00;46715.09;5010831;28;20030;-74
2022/12/08 02:19:24;;;;;;;3.10;1.57;;;;;;;-145.18;100.00;46711.19;5010680;28;20279;-75
2022/12/08 02:22:13;;;;;;;3.07;1.37;;;;;;;-145.18;100.00;46703.38;5010536;28;20362;-75
2022/12/08 02:24:57;;;;;;;4.40;1.27;;;;;;;-145.18;100.00;46707.28;5010442;28;20264;-75
2022/12/08 02:27:37;;;;;;;2.43;0.80;;;;;;;-145.18;100.00;46701.41;5010105;28;20636;-74
2022/12/08 02:30:20;;;;;;;2.00;0.70;;;;;;;-145.18;100.00;46717.03;5010615;28;20389;-74
2022/12/08 02:33:01;;;;;;;1.37;0.50;;;;;;;-145.18;100.00;46703.38;5009990;28;20847;-75
2022/12/08 02:35:34;;;;;;;3.00;0.50;;;;;;;-145.18;100.00;46705.31;5010507;28;20624;-75
2022/12/08 02:38:05;;;;;;;2.53;0.53;;;;;;;-145.18;100.00;46717.03;5010100;28;20728;-75
2022/12/08 02:40:52;;;;;;;1.13;0.60;;;;;;;-145.18;100.00;46709.22;5010547;28;20335;-75
2022/12/08 02:43:46;;;;;;;5.50;1.33;;;;;;;-145.18;100.00;46709.22;5010070;28;20279;-75
2022/12/08 02:46:22;;;;;;;2.73;0.90;;;;;;;-145.18;100.00;46713.13;5006271;28;20366;-75
2022/12/08 02:48:50;;;;;;;3.13;1.03;;;;;;;-145.18;100.00;46713.13;5010149;28;20882;-75
2022/12/08 02:51:16;;;;;;;1.00;0.70;;;;;;;-145.18;100.00;46715.09;5010283;28;20326;-75
2022/12/08 02:53:43;;;;;;;4.03;1.03;;;;;;;-145.18;100.00;46717.03;5009684;28;20779;-75
2022/12/08 02:56:39;;;;;;;4.17;1.27;;;;;;;-145.18;100.00;46697.50;5010410;28;20467;-75
2022/12/08 02:59:19;;;;;;;2.92;1.17;;;;;;;-145.18;100.00;46709.22;5010222;28;20783;-75
2022/12/08 03:04:30;;;;;;;3.90;1.45;;;;;;;-145.18;100.00;46711.19;4888088;23;20904;-74
2022/12/08 03:07:03;;;;;;;8.35;1.40;;;;;;;-145.18;100.00;46707.28;4958147;28;20110;-74
2022/12/08 03:10:04;;;;;;;4.10;1.00;;;;;;;-145.18;100.00;46707.28;4956630;29;20504;-74
2022/12/08 03:12:35;;;;;;;5.10;0.67;;;;;;;-145.18;100.00;46717.03;4950921;29;20348;-74
2022/12/08 03:15:08;;;;;;;3.37;0.90;;;;;;;-145.18;100.00;46711.19;4956014;29;20292;-73
2022/12/08 03:17:36;;;;;;;3.93;0.93;;;;;;;-145.18;100.00;46711.19;4956084;29;20281;-73
2022/12/08 03:20:08;;;;;;;5.93;1.17;;;;;;;-145.18;100.00;46701.41;4955945;29;20270;-74
2022/12/08 03:22:33;;;;;;;3.17;0.63;;;;;;;-145.18;100.00;46709.22;4955486;29;20817;-73
2022/12/08 03:24:59;;;;;;;3.60;0.73;;;;;;;-145.18;100.00;46715.09;4955752;29;20269;-74
2022/12/08 03:27:27;;;;;;;2.30;0.80;;;;;;;-145.18;100.00;46705.31;4955402;29;20536;-73
2022/12/08 03:29:54;;;;;;;3.20;0.70;;;;;;;-145.18;100.00;46709.22;4955574;29;20122;-73
2022/12/08 03:32:32;;;;;;;3.97;0.87;;;;;;;-145.18;100.00;46699.47;4955345;29;20276;-73
2022/12/08 03:35:02;;;;;;;3.80;0.87;;;;;;;-145.18;100.00;46699.47;4955311;29;20312;-73
2022/12/08 03:37:27;;;;;;;3.60;1.10;;;;;;;-145.18;100.00;46703.38;4955482;29;20907;-72
2022/12/08 03:39:53;;;;;;;3.40;0.63;;;;;;;-145.18;100.00;46701.41;4955645;29;20393;-73
2022/12/08 03:42:19;;;;;;;2.67;0.90;;;;;;;-145.18;100.00;46707.28;4955042;29;20047;-73
2022/12/08 03:44:44;;;;;;;7.60;1.10;;;;;;;-145.18;100.00;46711.19;4955409;29;20043;-73
2022/12/08 03:47:09;;;;;;;3.17;0.80;;;;;;;-145.18;100.00;46707.28;4937793;29;20182;-73
2022/12/08 03:49:35;;;;;;;5.20;0.70;;;;;;;-145.18;100.00;46705.31;4937980;29;20043;-73
2022/12/08 03:52:00;;;;;;;5.90;0.93;;;;;;;-145.18;100.00;46715.09;4955128;29;20043;-73
2022/12/08 03:54:26;;;;;;;4.50;1.10;;;;;;;-145.18;100.00;46707.28;4955013;29;20043;-73
2022/12/08 03:56:51;;;;;;;2.50;0.80;;;;;;;-145.18;100.00;46717.03;4955086;29;20038;-73
2022/12/08 03:59:16;;;;;;;2.60;0.87;;;;;;;-145.18;100.00;46717.03;4954864;29;20047;-73
2022/12/08 04:01:42;;;;;;;4.13;1.00;;;;;;;-145.18;100.00;46719.00;4937795;29;20097;-73
2022/12/08 04:04:07;;;;;;;3.70;1.00;;;;;;;-145.18;100.00;46707.28;4969657;28;20059;-73
2022/12/08 04:06:33;;;;;;;3.33;0.70;;;;;;;-145.18;100.00;46701.41;4974401;28;20810;-73
2022/12/08 04:08:58;;;;;;;5.07;0.70;;;;;;;-145.18;100.00;46713.13;4973628;28;20487;-73
2022/12/08 04:11:23;;;;;;;2.57;0.60;;;;;;;-145.18;100.00;46709.22;4972665;28;20089;-73
2022/12/08 04:13:49;;;;;;;2.93;0.50;;;;;;;-145.18;100.00;46693.59;4974265;28;20045;-73
2022/12/08 04:16:22;;;;;;;4.43;0.77;;;;;;;-145.18;100.00;46699.47;4974159;28;20479;-73
2022/12/08 04:18:48;;;;;;;4.70;0.77;;;;;;;-145.18;100.00;46707.28;4972819;28;20030;-74
2022/12/08 04:21:13;;;;;;;5.87;0.93;;;;;;;-145.18;100.00;46719.00;4973641;28;20284;-74
2022/12/08 04:23:39;;;;;;;2.47;0.60;;;;;;;-145.18;100.00;46711.19;4973735;28;20034;-74
2022/12/08 04:26:06;;;;;;;1.57;0.73;;;;;;;-145.18;100.00;46717.03;4973848;28;20395;-74
2022/12/08 04:28:31;;;;;;;2.33;0.97;;;;;;;-145.18;100.00;46701.41;4973556;28;20109;-74
2022/12/08 04:30:56;;;;;;;2.80;0.90;;;;;;;-145.18;100.00;46711.19;4973801;28;20355;-75
2022/12/08 04:33:22;;;;;;;4.83;0.80;;;;;;;-145.18;100.00;46715.09;4973287;28;20086;-73
2022/12/08 04:35:47;;;;;;;3.00;0.67;;;;;;;-145.18;100.00;46703.38;4973891;28;20118;-74
2022/12/08 04:38:13;;;;;;;4.73;0.90;;;;;;;-145.18;100.00;46709.22;4972997;28;20034;-74
2022/12/08 04:40:39;;;;;;;6.43;1.20;;;;;;;-145.18;100.00;46709.22;4973664;28;20146;-73
2022/12/08 04:43:04;;;;;;;2.13;0.90;;;;;;;-145.18;100.00;46709.22;4973068;28;20035;-73
2022/12/08 04:45:31;;;;;;;2.17;0.80;;;;;;;-145.18;100.00;46707.28;4973676;28;20269;-73
2022/12/08 04:48:00;;;;;;;4.20;1.00;;;;;;;-145.18;100.00;46701.41;4973179;28;20042;-73
2022/12/08 04:50:26;;;;;;;2.40;1.10;;;;;;;-145.18;100.00;46707.28;4973257;28;20284;-73
2022/12/08 04:52:52;;;;;;;2.30;0.90;;;;;;;-145.18;100.00;46709.22;4973237;28;20273;-73
2022/12/08 04:55:18;;;;;;;3.37;1.30;;;;;;;-145.18;100.00;46707.28;4973170;28;20275;-73
2022/12/08 04:57:44;;;;;;;2.37;1.13;;;;;;;-145.18;100.00;46703.38;4979993;28;20034;-73
2022/12/08 05:00:10;;;;;;;8.13;2.43;;;;;;;-145.18;100.00;46699.47;4992028;28;20089;-73
2022/12/08 05:02:36;;;;;;;6.63;1.67;;;;;;;-145.18;100.00;46703.38;4991519;28;20069;-74
2022/12/08 05:05:02;;;;;;;5.40;1.30;;;;;;;-145.18;100.00;46707.28;4991826;28;20311;-73
2022/12/08 05:07:27;;;;;;;4.37;1.13;;;;;;;-145.18;100.00;46713.13;4988696;28;20613;-73
2022/12/08 05:09:53;;;;;;;6.73;1.17;;;;;;;-145.18;100.00;46707.28;4992007;28;20275;-73
2022/12/08 05:12:18;;;;;;;2.53;0.97;;;;;;;-145.18;100.00;46709.22;4974080;28;20062;-73
2022/12/08 05:14:46;;;;;;;4.83;0.90;;;;;;;-145.18;100.00;46713.13;4992173;28;20638;-73
2022/12/08 05:17:11;;;;;;;6.03;1.00;;;;;;;-145.18;100.00;46703.38;4992374;28;20036;-73
2022/12/08 05:19:36;;;;;;;7.67;0.90;;;;;;;-145.18;100.00;46713.13;4992107;28;20268;-74
2022/12/08 05:22:02;;;;;;;3.90;0.60;;;;;;;-145.18;100.00;46705.31;4974783;28;20125;-77
2022/12/08 05:24:27;;;;;;;0.70;0.33;;;;;;;-145.18;100.00;46715.09;4992084;28;20022;-76
2022/12/08 05:26:52;;;;;;;2.27;0.40;;;;;;;-145.18;100.00;46713.13;4992177;28;20085;-75
2022/12/08 05:29:18;;;;;;;0.73;0.40;;;;;;;-145.18;100.00;46713.13;4991541;28;20040;-74
2022/12/08 05:31:43;;;;;;;0.70;0.50;;;;;;;-145.18;100.00;46715.09;4992053;28;20156;-74
2022/12/08 05:34:08;;;;;;;2.90;0.40;;;;;;;-145.18;100.00;46720.94;4991571;28;20129;-74
2022/12/08 05:36:35;;;;;;;4.30;0.80;;;;;;;-145.18;100.00;46719.00;4974406;28;20108;-72
2022/12/08 05:39:00;;;;;;;1.00;0.40;;;;;;;-145.18;100.00;46717.03;4991739;28;20347;-72
2022/12/08 05:41:25;;;;;;;2.33;0.50;;;;;;;-145.18;100.00;46719.00;4991516;28;20157;-72
2022/12/08 05:43:51;;;;;;;2.00;0.60;;;;;;;-145.18;100.00;46711.19;4991546;28;20043;-72
2022/12/08 05:46:27;;;;;;;0.80;0.30;;;;;;;-145.18;100.00;46717.03;4991476;28;20042;-72
2022/12/08 05:48:52;;;;;;;5.20;1.00;;;;;;;-145.18;100.00;46709.22;4991678;28;20034;-71
2022/12/08 05:51:21;;;;;;;1.20;0.20;;;;;;;-145.18;100.00;46719.00;4991349;28;20272;-71
2022/12/08 05:53:48;;;;;;;0.67;0.30;;;;;;;-145.18;100.00;46717.03;4991418;28;20037;-72
2022/12/08 05:56:14;;;;;;;2.87;0.40;;;;;;;-145.18;100.00;46717.03;4991536;28;20404;-72
2022/12/08 05:58:39;;;;;;;1.60;0.60;;;;;;;-145.18;100.00;46717.03;4991410;28;20739;-72
2022/12/08 06:01:04;;;;;;;1.47;0.50;;;;;;;-145.18;100.00;46717.03;4991077;28;20428;-72
2022/12/08 06:03:30;;;;;;;1.70;0.40;;;;;;;-145.18;100.00;46713.13;4991085;28;20582;-72
2022/12/08 06:05:56;;;;;;;2.57;0.63;;;;;;;-145.18;100.00;46719.00;4991436;28;20105;-72
2022/12/08 06:08:22;;;;;;;1.50;0.50;;;;;;;-145.18;100.00;46719.00;4990357;28;20034;-72
2022/12/08 06:10:47;;;;;;;3.07;0.53;;;;;;;-145.18;100.00;46719.00;4990710;28;20510;-72
2022/12/08 06:13:13;;;;;;;3.73;0.83;;;;;;;-145.18;100.00;46711.19;4990646;28;20096;-72
2022/12/08 06:15:40;;;;;;;2.00;0.80;;;;;;;-145.18;100.00;46715.09;4991155;28;20035;-72
2022/12/08 06:18:06;;;;;;;4.03;1.07;;;;;;;-145.18;100.00;46720.94;4990912;28;20276;-72
2022/12/08 06:20:32;;;;;;;9.17;1.53;;;;;;;-145.18;100.00;46722.91;4991358;28;20358;-72
2022/12/08 06:22:57;;;;;;;3.30;1.40;;;;;;;-145.18;100.00;46717.03;4990858;28;20347;-72
2022/12/08 06:25:23;;;;;;;3.13;1.77;;;;;;;-145.18;100.00;46717.03;4990785;28;20061;-72
2022/12/08 06:27:49;;;;;;;2.53;1.30;;;;;;;-145.18;100.00;46715.09;4990968;28;20038;-72
2022/12/08 06:30:15;;;;;;;2.23;1.30;;;;;;;-145.18;100.00;46717.03;4990694;28;20046;-72
2022/12/08 06:32:41;;;;;;;6.17;1.53;;;;;;;-145.18;100.00;46715.09;4990910;28;20157;-72
2022/12/08 06:35:07;;;;;;;4.37;1.03;;;;;;;-145.18;100.00;46711.19;4990802;28;20292;-72
2022/12/08 06:37:32;;;;;;;3.27;1.03;;;;;;;-145.18;100.00;46717.03;4990480;28;20050;-72
2022/12/08 06:39:58;;;;;;;8.17;0.70;;;;;;;-145.18;100.00;46715.09;4989471;28;20426;-72
2022/12/08 06:45:07;;;;;;;2.37;0.90;;;;;;;-145.18;100.00;46722.91;4988997;28;20533;-72
2022/12/08 06:47:33;;;;;;;1.83;0.87;;;;;;;-145.18;100.00;46720.94;4972140;28;20272;-72
2022/12/08 06:49:59;;;;;;;3.00;1.13;;;;;;;-145.18;100.00;46719.00;4989085;28;20113;-72
2022/12/08 06:52:24;;;;;;;1.83;0.83;;;;;;;-145.18;100.00;46717.03;4988558;28;20034;-72
2022/12/08 06:54:50;;;;;;;4.13;1.10;;;;;;;-145.18;100.00;46709.22;4988857;28;20434;-72
2022/12/08 06:57:15;;;;;;;2.77;0.97;;;;;;;-145.18;100.00;46719.00;4988967;28;20061;-72
2022/12/08 06:59:40;;;;;;;1.37;0.77;;;;;;;-145.18;100.00;46717.03;4989125;28;20081;-72
2022/12/08 07:02:06;;;;;;;2.43;0.90;;;;;;;-145.18;100.00;46720.94;4988396;28;20069;-74
2022/12/08 07:04:31;;;;;;;7.50;1.50;;;;;;;-145.18;100.00;46709.22;4989999;28;20055;-74
2022/12/08 07:06:56;;;;;;;1.90;0.90;;;;;;;-145.18;100.00;46715.09;4973733;28;20403;-74
2022/12/08 07:09:22;;;;;;;1.27;0.97;;;;;;;-145.18;100.00;46717.03;4989166;28;20046;-74
2022/12/08 07:11:47;;;;;;;4.47;0.90;;;;;;;-145.18;100.00;46717.03;4972957;28;20030;-74
2022/12/08 07:14:12;;;;;;;1.43;0.43;;;;;;;-145.18;100.00;46709.22;4955632;28;20041;-74
2022/12/08 07:16:38;;;;;;;1.43;0.40;;;;;;;-145.18;100.00;46720.94;4990811;28;20047;-74
2022/12/08 07:19:05;;;;;;;0.70;0.20;;;;;;;-145.18;100.00;46722.91;4990096;28;20035;-74
2022/12/08 07:21:30;;;;;;;0.67;0.20;;;;;;;-145.18;100.00;46722.91;4989650;28;20045;-74
2022/12/08 07:23:55;;;;;;;0.20;0.20;;;;;;;-145.18;100.00;46717.03;4972667;28;20784;-74
2022/12/08 07:26:21;;;;;;;2.67;0.30;;;;;;;-145.18;100.00;46722.91;4990441;28;20034;-72
2022/12/08 07:28:46;;;;;;;2.30;0.50;;;;;;;-145.18;100.00;46715.09;4990242;28;20514;-72
2022/12/08 07:31:30;;;;;;;0.80;0.40;;;;;;;-145.18;100.00;46720.94;4990265;28;20436;-72
2022/12/08 07:33:56;;;;;;;0.53;0.40;;;;;;;-145.18;100.00;46720.94;4988531;28;20046;-72
2022/12/08 07:36:22;;;;;;;0.73;0.50;;;;;;;-145.18;100.00;46717.03;4971293;28;20288;-72
2022/12/08 07:38:48;;;;;;;1.00;0.80;;;;;;;-145.18;100.00;46715.09;4990427;28;20303;-71
2022/12/08 07:41:16;;;;;;;1.83;1.00;;;;;;;-145.18;100.00;46719.00;4990170;28;20749;-72
2022/12/08 07:43:42;;;;;;;1.63;0.90;;;;;;;-145.18;100.00;46717.03;4990031;28;20272;-74
2022/12/08 07:46:11;;;;;;;0.90;0.60;;;;;;;-145.18;100.00;46711.19;4989875;28;20811;-72
2022/12/08 07:48:36;;;;;;;2.27;0.70;;;;;;;-145.18;100.00;46719.00;4989707;28;20069;-72
2022/12/08 07:51:04;;;;;;;1.30;0.60;;;;;;;-145.18;100.00;46715.09;4972986;28;20316;-73
2022/12/08 07:53:30;;;;;;;2.33;0.97;;;;;;;-145.18;100.00;46719.00;4991190;28;20048;-73
2022/12/08 07:55:55;;;;;;;2.17;1.00;;;;;;;-145.18;100.00;46709.22;4993826;28;20276;-73
2022/12/08 07:58:20;;;;;;;3.30;1.13;;;;;;;-145.18;100.00;46724.84;4993094;28;20034;-73
2022/12/08 08:00:46;;;;;;;1.40;0.90;;;;;;;-145.18;100.00;46707.28;4993792;28;20034;-73
2022/12/08 08:03:11;;;;;;;5.57;1.20;;;;;;;-145.18;100.00;46715.09;4992919;28;20069;-73
2022/12/08 08:05:37;;;;;;;1.40;1.10;;;;;;;-145.18;100.00;46717.03;4993714;28;20042;-74
2022/12/08 08:08:02;;;;;;;4.83;2.60;;;;;;;-145.18;100.00;46707.28;4993332;28;20052;-73
2022/12/08 08:10:28;;;;;;;6.87;2.17;;;;;;;-145.18;100.00;46713.13;4992909;28;20085;-73
2022/12/08 08:12:53;;;;;;;3.97;1.50;;;;;;;-145.18;100.00;46717.03;4959511;28;20045;-73
2022/12/08 08:15:20;;;;;;;2.10;1.10;;;;;;;-145.18;100.00;46715.09;4975587;28;20512;-73
2022/12/08 08:17:49;;;;;;;2.03;1.10;;;;;;;-145.18;100.00;46717.03;4993304;28;20026;-73
2022/12/08 08:20:14;;;;;;;1.73;0.90;;;;;;;-145.18;100.00;46715.09;4992884;28;20268;-73
2022/12/08 08:22:39;;;;;;;2.30;1.60;;;;;;;-145.18;100.00;46713.13;4993177;28;20642;-73
2022/12/08 08:25:05;;;;;;;2.53;1.50;;;;;;;-145.18;100.00;46719.00;4958616;28;20068;-73
2022/12/08 08:27:30;;;;;;;2.57;1.43;;;;;;;-145.18;100.00;46719.00;4975564;28;20038;-73
2022/12/08 08:29:56;;;;;;;3.37;1.60;;;;;;;-145.18;100.00;46717.03;4992841;28;20042;-73
2022/12/08 08:32:21;;;;;;;3.53;1.67;;;;;;;-145.18;100.00;46720.94;4992718;28;20034;-74
2022/12/08 08:34:46;;;;;;;4.27;1.87;;;;;;;-145.18;100.00;46715.09;4991099;28;20050;-74
2022/12/08 08:37:12;;;;;;;5.10;1.87;;;;;;;-145.18;100.00;46717.03;4992193;28;20121;-74
2022/12/08 08:39:37;;;;;;;3.57;2.00;;;;;;;-145.18;100.00;46715.09;4992779;28;20383;-74
2022/12/08 08:42:02;;;;;;;3.50;2.03;;;;;;;-145.18;100.00;46713.13;4975394;28;20097;-74
2022/12/08 08:44:28;;;;;;;5.63;2.40;;;;;;;-145.18;100.00;46715.09;4992355;28;20093;-74
2022/12/08 08:46:53;;;;;;;4.00;2.60;;;;;;;-145.18;100.00;46715.09;4992811;28;20434;-74
2022/12/08 08:49:19;;;;;;;3.20;2.00;;;;;;;-145.18;100.00;46711.19;4992559;28;20039;-74
2022/12/08 08:51:45;;;;;;;5.33;2.73;;;;;;;-145.18;100.00;46715.09;4992734;28;20031;-74
2022/12/08 08:54:10;;;;;;;4.73;2.80;;;;;;;-145.18;100.00;46713.13;4992168;28;20038;-74
2022/12/08 08:56:36;;;;;;;4.93;2.90;;;;;;;-145.18;100.00;46711.19;4974539;28;20292;-74
2022/12/08 08:59:01;;;;;;;8.87;2.87;;;;;;;-145.18;100.00;46711.19;4992244;28;20038;-74
2022/12/08 09:01:27;;;;;;;7.53;3.07;;;;;;;-145.18;100.00;46713.13;4991559;28;20522;-74
2022/12/08 09:03:54;;;;;;;6.00;3.90;;;;;;;-145.18;100.00;46711.19;4992045;28;20034;-74
2022/12/08 09:06:19;;;;;;;6.93;3.73;;;;;;;-145.18;100.00;46717.03;4991712;28;20687;-74
2022/12/08 09:08:47;;;;;;;6.27;3.00;;;;;;;-145.18;100.00;46707.28;4992317;28;20275;-74
2022/12/08 09:11:13;;;;;;;4.77;2.50;;;;;;;-145.18;100.00;46713.13;4992209;28;20038;-74
2022/12/08 09:13:38;;;;;;;6.00;2.50;;;;;;;-145.18;100.00;46711.19;4991652;28;20347;-74
2022/12/08 09:16:06;;;;;;;3.67;2.57;;;;;;;-145.18;100.00;46713.13;4992148;28;20464;-74
2022/12/08 09:18:32;;;;;;;3.87;2.70;;;;;;;-145.18;100.00;46713.13;4991917;28;20403;-74
2022/12/08 09:21:11;;;;;;;7.63;3.33;;;;;;;-145.18;100.00;46715.09;4992040;28;20265;-74
2022/12/08 09:23:37;;;;;;;4.47;2.77;;;;;;;-145.18;100.00;46717.03;4991808;28;20053;-74
2022/12/08 09:26:03;;;;;;;6.30;2.87;;;;;;;-145.18;100.00;46711.19;4991795;28;20330;-75
2022/12/08 09:28:29;;;;;;;6.43;2.73;;;;;;;-145.18;100.00;46713.13;4991908;28;20065;-74
2022/12/08 09:30:55;;;;;;;4.53;3.07;;;;;;;-145.18;100.00;46715.09;4992069;28;20308;-74
2022/12/08 09:33:20;;;;;;;2.33;1.40;;;;;;;-145.18;100.00;46719.00;4991188;28;20383;-74
2022/12/08 09:35:45;;;;;;;4.20;1.13;;;;;;;-145.18;100.00;46719.00;4991846;28;20034;-74
2022/12/08 09:38:11;;;;;;;2.03;1.20;;;;;;;-145.18;100.00;46720.94;5087791;23;20049;-74
2022/12/08 09:40:47;;;;;;;2.50;1.20;;;;;;;-145.18;100.00;46717.03;5050861;28;20048;-74
2022/12/08 09:43:50;;;;;;;2.73;1.17;;;;;;;-145.18;100.00;46713.13;5032822;28;20120;-73
2022/12/08 09:46:17;;;;;;;2.00;0.90;;;;;;;-145.18;100.00;46715.09;5050956;28;20274;-74
2022/12/08 09:48:50;;;;;;;6.10;2.07;;;;;;;-145.18;100.00;46715.09;5050843;28;20750;-74
2022/12/08 09:51:16;;;;;;;4.27;1.20;;;;;;;-145.18;100.00;46713.13;5050536;28;20292;-74
2022/12/08 09:53:47;;;;;;;2.10;0.93;;;;;;;-145.18;100.00;46713.13;5050606;28;20761;-75
2022/12/08 09:56:17;;;;;;;3.10;1.20;;;;;;;-145.18;100.00;46713.13;5050669;28;20024;-75
2022/12/08 09:59:02;;;;;;;4.40;1.00;;;;;;;-145.18;100.00;46719.00;5050536;28;20258;-75
2022/12/08 10:01:31;;;;;;;1.93;0.70;;;;;;;-145.18;100.00;46713.13;5043932;28;20267;-75
2022/12/08 10:03:57;;;;;;;5.80;1.00;;;;;;;-145.18;100.00;46717.03;5029812;28;20774;-75
2022/12/08 10:06:45;;;;;;;3.07;2.20;;;;;;;-145.18;100.00;46720.94;5030612;28;20274;-74
2022/12/08 10:09:23;;;;;;;3.10;2.53;;;;;;;-145.18;100.00;46717.03;5030294;28;20109;-75
2022/12/08 10:12:12;;;;;;;2.67;1.80;;;;;;;-145.18;100.00;46709.22;5030644;28;20255;-74
2022/12/08 10:14:56;;;;;;;4.30;2.23;;;;;;;-145.18;100.00;46715.09;5030451;28;20337;-74
2022/12/08 10:17:33;;;;;;;3.50;2.30;;;;;;;-145.18;100.00;46720.94;5029725;28;20271;-74
2022/12/08 10:20:05;;;;;;;3.50;2.50;;;;;;;-145.18;100.00;46715.09;5030154;28;20259;-74
2022/12/08 10:22:33;;;;;;;3.50;2.67;;;;;;;-145.18;100.00;46715.09;5013047;28;20278;-74
2022/12/08 10:25:04;;;;;;;4.57;2.53;;;;;;;-145.18;100.00;46715.09;5029794;28;20263;-74
2022/12/08 10:27:33;;;;;;;3.37;2.50;;;;;;;-145.18;100.00;46719.00;5030581;28;20600;-74
2022/12/08 10:29:59;;;;;;;2.67;2.10;;;;;;;-145.18;100.00;46711.19;5012487;28;20694;-74
2022/12/08 10:32:32;;;;;;;3.50;2.30;;;;;;;-145.18;100.00;46715.09;5030239;28;20275;-74
2022/12/08 10:34:59;;;;;;;3.50;2.60;;;;;;;-145.18;100.00;46715.09;5029830;28;20495;-74
2022/12/08 10:37:25;;;;;;;2.80;2.30;;;;;;;-145.18;100.00;46711.19;5029929;28;20294;-73
2022/12/08 10:40:00;;;;;;;4.27;2.30;;;;;;;-145.18;100.00;46713.13;5030236;28;20266;-74
2022/12/08 10:42:33;;;;;;;2.60;2.00;;;;;;;-145.18;100.00;46709.22;5029472;28;20035;-74
2022/12/08 10:45:07;;;;;;;3.97;2.70;;;;;;;-145.18;100.00;46713.13;5023730;28;20101;-74
2022/12/08 10:47:36;;;;;;;4.13;2.67;;;;;;;-145.18;100.00;46709.22;5024242;28;20262;-74
2022/12/08 10:50:14;;;;;;;5.50;2.40;;;;;;;-145.18;100.00;46707.28;5017670;28;20814;-74
2022/12/08 10:52:40;;;;;;;5.33;2.83;;;;;;;-145.18;100.00;46715.09;5018764;28;20275;-75
2022/12/08 10:55:17;;;;;;;3.20;2.63;;;;;;;-145.18;100.00;46713.13;5028917;28;20326;-75
2022/12/08 10:57:43;;;;;;;3.77;2.80;;;;;;;-145.18;100.00;46709.22;5028646;28;20746;-75
2022/12/08 11:00:14;;;;;;;2.43;2.10;;;;;;;-145.18;100.00;46713.13;5029619;28;20332;-74
2022/12/08 11:03:01;;;;;;;3.97;2.50;;;;;;;-145.18;100.00;46717.03;5030178;28;20033;-74
2022/12/08 11:05:32;;;;;;;3.30;1.50;;;;;;;-145.18;100.00;46715.09;5029398;28;20350;-74
2022/12/08 11:07:58;;;;;;;3.73;0.97;;;;;;;-145.18;100.00;46713.13;5029953;28;20778;-74
2022/12/08 11:10:36;;;;;;;1.40;0.80;;;;;;;-145.18;100.00;46713.13;5029540;28;20271;-74
2022/12/08 11:13:12;;;;;;;2.00;0.97;;;;;;;-145.18;100.00;46717.03;5029521;28;20267;-74
2022/12/08 11:15:38;;;;;;;3.57;1.10;;;;;;;-145.18;100.00;46719.00;5029567;28;20297;-74
2022/12/08 11:18:21;;;;;;;3.60;1.00;;;;;;;-145.18;100.00;46717.03;5011805;28;20286;-74
2022/12/08 11:20:56;;;;;;;1.73;0.90;;;;;;;-145.18;100.00;46715.09;5029522;28;20262;-74
2022/12/08 11:23:24;;;;;;;1.90;0.80;;;;;;;-145.18;100.00;46715.09;5029491;28;20262;-74